sensor_id;sensor_type;location;lat;lon;timestamp;P1;durP1;ratioP1;P2;durP2;ratioP2
4744;SDS011;2386;42.138;24.746;2023-10-19T00:01:54;22.10;;;16.43;;
4744;SDS011;2386;42.138;24.746;2023-10-19T00:04:19;28.27;;;16.20;;
4744;SDS011;2386;42.138;24.746;2023-10-19T00:06:47;26.93;;;15.87;;
4744;SDS011;2386;42.138;24.746;2023-10-19T00:09:13;21.43;;;15.93;;
4744;SDS011;2386;42.138;24.746;2023-10-19T00:11:40;30.03;;;16.47;;
4744;SDS011;2386;42.138;24.746;2023-10-19T00:14:06;20.83;;;15.27;;
4744;SDS011;2386;42.138;24.746;2023-10-19T00:16:41;21.43;;;15.00;;
4744;SDS011;2386;42.138;24.746;2023-10-19T00:19:09;23.10;;;15.43;;
4744;SDS011;2386;42.138;24.746;2023-10-19T00:21:35;20.40;;;15.53;;
4744;SDS011;2386;42.138;24.746;2023-10-19T00:24:15;21.50;;;16.20;;
4744;SDS011;2386;42.138;24.746;2023-10-19T00:26:42;27.03;;;17.00;;
4744;SDS011;2386;42.138;24.746;2023-10-19T00:29:09;21.80;;;15.50;;
4744;SDS011;2386;42.138;24.746;2023-10-19T00:31:52;21.30;;;16.23;;
4744;SDS011;2386;42.138;24.746;2023-10-19T00:34:18;19.33;;;14.30;;
4744;SDS011;2386;42.138;24.746;2023-10-19T00:36:46;19.97;;;14.67;;
4744;SDS011;2386;42.138;24.746;2023-10-19T00:39:13;20.00;;;15.77;;
4744;SDS011;2386;42.138;24.746;2023-10-19T00:41:49;22.17;;;15.30;;
4744;SDS011;2386;42.138;24.746;2023-10-19T00:44:15;19.23;;;14.67;;
4744;SDS011;2386;42.138;24.746;2023-10-19T00:46:43;22.23;;;15.13;;
4744;SDS011;2386;42.138;24.746;2023-10-19T00:49:14;22.13;;;16.23;;
4744;SDS011;2386;42.138;24.746;2023-10-19T00:51:41;18.13;;;14.77;;
4744;SDS011;2386;42.138;24.746;2023-10-19T00:54:24;24.93;;;15.90;;
4744;SDS011;2386;42.138;24.746;2023-10-19T00:56:56;19.97;;;15.10;;
4744;SDS011;2386;42.138;24.746;2023-10-19T00:59:24;24.13;;;14.80;;
4744;SDS011;2386;42.138;24.746;2023-10-19T01:01:55;23.20;;;16.10;;
4744;SDS011;2386;42.138;24.746;2023-10-19T01:04:44;19.97;;;15.10;;
4744;SDS011;2386;42.138;24.746;2023-10-19T01:07:15;18.93;;;14.93;;
4744;SDS011;2386;42.138;24.746;2023-10-19T01:09:47;20.20;;;16.00;;
4744;SDS011;2386;42.138;24.746;2023-10-19T01:12:12;18.20;;;14.83;;
4744;SDS011;2386;42.138;24.746;2023-10-19T01:17:48;23.00;;;15.10;;
4744;SDS011;2386;42.138;24.746;2023-10-19T01:20:24;19.30;;;15.00;;
4744;SDS011;2386;42.138;24.746;2023-10-19T01:22:56;23.33;;;15.03;;
4744;SDS011;2386;42.138;24.746;2023-10-19T01:25:44;22.00;;;15.70;;
4744;SDS011;2386;42.138;24.746;2023-10-19T01:28:23;23.70;;;15.53;;
4744;SDS011;2386;42.138;24.746;2023-10-19T01:31:08;25.57;;;15.90;;
4744;SDS011;2386;42.138;24.746;2023-10-19T01:33:42;21.47;;;15.23;;
4744;SDS011;2386;42.138;24.746;2023-10-19T01:36:09;22.60;;;16.17;;
4744;SDS011;2386;42.138;24.746;2023-10-19T01:38:46;22.97;;;15.60;;
4744;SDS011;2386;42.138;24.746;2023-10-19T01:41:12;22.10;;;15.87;;
4744;SDS011;2386;42.138;24.746;2023-10-19T01:43:42;31.43;;;15.60;;
4744;SDS011;2386;42.138;24.746;2023-10-19T01:46:09;20.37;;;15.00;;
4744;SDS011;2386;42.138;24.746;2023-10-19T01:48:41;21.50;;;16.07;;
4744;SDS011;2386;42.138;24.746;2023-10-19T01:51:09;20.27;;;15.57;;
4744;SDS011;2386;42.138;24.746;2023-10-19T01:53:39;21.23;;;15.00;;
4744;SDS011;2386;42.138;24.746;2023-10-19T01:56:09;25.10;;;16.60;;
4744;SDS011;2386;42.138;24.746;2023-10-19T01:58:39;20.20;;;15.27;;
4744;SDS011;2386;42.138;24.746;2023-10-19T02:01:06;24.23;;;16.40;;
4744;SDS011;2386;42.138;24.746;2023-10-19T02:03:38;21.77;;;14.60;;
4744;SDS011;2386;42.138;24.746;2023-10-19T02:06:07;22.20;;;14.90;;
4744;SDS011;2386;42.138;24.746;2023-10-19T02:08:48;22.77;;;15.67;;
4744;SDS011;2386;42.138;24.746;2023-10-19T02:11:18;25.00;;;16.60;;
4744;SDS011;2386;42.138;24.746;2023-10-19T02:13:46;25.47;;;16.40;;
4744;SDS011;2386;42.138;24.746;2023-10-19T02:16:12;23.50;;;16.33;;
4744;SDS011;2386;42.138;24.746;2023-10-19T02:18:41;26.10;;;17.13;;
4744;SDS011;2386;42.138;24.746;2023-10-19T02:21:07;28.33;;;18.60;;
4744;SDS011;2386;42.138;24.746;2023-10-19T02:23:33;31.07;;;15.13;;
4744;SDS011;2386;42.138;24.746;2023-10-19T02:26:01;23.97;;;16.57;;
4744;SDS011;2386;42.138;24.746;2023-10-19T02:28:28;30.37;;;17.07;;
4744;SDS011;2386;42.138;24.746;2023-10-19T02:30:57;24.07;;;15.77;;
4744;SDS011;2386;42.138;24.746;2023-10-19T02:33:23;20.23;;;15.10;;
4744;SDS011;2386;42.138;24.746;2023-10-19T02:35:51;22.27;;;12.97;;
4744;SDS011;2386;42.138;24.746;2023-10-19T02:38:17;16.67;;;12.57;;
4744;SDS011;2386;42.138;24.746;2023-10-19T02:40:42;16.80;;;13.27;;
4744;SDS011;2386;42.138;24.746;2023-10-19T02:43:07;24.00;;;13.30;;
4744;SDS011;2386;42.138;24.746;2023-10-19T02:45:34;19.60;;;14.10;;
4744;SDS011;2386;42.138;24.746;2023-10-19T02:47:59;15.50;;;11.50;;
4744;SDS011;2386;42.138;24.746;2023-10-19T02:50:25;20.13;;;14.40;;
4744;SDS011;2386;42.138;24.746;2023-10-19T02:52:51;17.37;;;12.53;;
4744;SDS011;2386;42.138;24.746;2023-10-19T02:55:18;22.33;;;13.30;;
4744;SDS011;2386;42.138;24.746;2023-10-19T02:57:48;20.50;;;13.80;;
4744;SDS011;2386;42.138;24.746;2023-10-19T03:00:15;16.60;;;12.47;;
4744;SDS011;2386;42.138;24.746;2023-10-19T03:02:44;19.87;;;13.17;;
4744;SDS011;2386;42.138;24.746;2023-10-19T03:05:10;17.97;;;12.37;;
4744;SDS011;2386;42.138;24.746;2023-10-19T03:07:45;14.63;;;11.57;;
4744;SDS011;2386;42.138;24.746;2023-10-19T03:10:11;17.07;;;11.53;;
4744;SDS011;2386;42.138;24.746;2023-10-19T03:13:08;17.77;;;12.17;;
4744;SDS011;2386;42.138;24.746;2023-10-19T03:15:34;23.03;;;12.53;;
4744;SDS011;2386;42.138;24.746;2023-10-19T03:18:00;18.80;;;13.47;;
4744;SDS011;2386;42.138;24.746;2023-10-19T03:20:30;19.40;;;13.43;;
4744;SDS011;2386;42.138;24.746;2023-10-19T03:22:58;19.23;;;13.00;;
4744;SDS011;2386;42.138;24.746;2023-10-19T03:25:26;26.47;;;14.00;;
4744;SDS011;2386;42.138;24.746;2023-10-19T03:28:10;23.33;;;13.47;;
4744;SDS011;2386;42.138;24.746;2023-10-19T03:30:37;16.57;;;10.73;;
4744;SDS011;2386;42.138;24.746;2023-10-19T03:33:08;14.97;;;11.60;;
4744;SDS011;2386;42.138;24.746;2023-10-19T03:35:37;16.93;;;11.77;;
4744;SDS011;2386;42.138;24.746;2023-10-19T03:38:06;13.13;;;11.20;;
4744;SDS011;2386;42.138;24.746;2023-10-19T03:40:42;21.87;;;11.87;;
4744;SDS011;2386;42.138;24.746;2023-10-19T03:43:16;19.20;;;12.40;;
4744;SDS011;2386;42.138;24.746;2023-10-19T03:45:43;17.30;;;12.20;;
4744;SDS011;2386;42.138;24.746;2023-10-19T03:48:18;13.53;;;11.80;;
4744;SDS011;2386;42.138;24.746;2023-10-19T03:50:59;16.07;;;11.87;;
4744;SDS011;2386;42.138;24.746;2023-10-19T03:53:27;19.50;;;15.60;;
4744;SDS011;2386;42.138;24.746;2023-10-19T03:55:52;16.60;;;12.60;;
4744;SDS011;2386;42.138;24.746;2023-10-19T03:58:19;15.97;;;12.10;;
4744;SDS011;2386;42.138;24.746;2023-10-19T04:00:46;12.73;;;11.20;;
4744;SDS011;2386;42.138;24.746;2023-10-19T04:03:14;18.83;;;12.73;;
4744;SDS011;2386;42.138;24.746;2023-10-19T04:05:45;15.07;;;12.00;;
4744;SDS011;2386;42.138;24.746;2023-10-19T04:08:14;19.40;;;12.67;;
4744;SDS011;2386;42.138;24.746;2023-10-19T04:10:42;18.07;;;12.30;;
4744;SDS011;2386;42.138;24.746;2023-10-19T04:13:10;22.83;;;13.23;;
4744;SDS011;2386;42.138;24.746;2023-10-19T04:15:37;18.17;;;12.53;;
4744;SDS011;2386;42.138;24.746;2023-10-19T04:18:03;15.77;;;13.13;;
4744;SDS011;2386;42.138;24.746;2023-10-19T04:20:35;18.23;;;12.80;;
4744;SDS011;2386;42.138;24.746;2023-10-19T04:23:19;27.73;;;13.70;;
4744;SDS011;2386;42.138;24.746;2023-10-19T04:25:50;21.13;;;13.20;;
4744;SDS011;2386;42.138;24.746;2023-10-19T04:28:16;22.33;;;13.50;;
4744;SDS011;2386;42.138;24.746;2023-10-19T04:30:46;18.40;;;13.50;;
4744;SDS011;2386;42.138;24.746;2023-10-19T04:33:13;18.60;;;13.73;;
4744;SDS011;2386;42.138;24.746;2023-10-19T04:35:41;20.70;;;13.70;;
4744;SDS011;2386;42.138;24.746;2023-10-19T04:38:07;18.93;;;14.30;;
4744;SDS011;2386;42.138;24.746;2023-10-19T04:40:32;24.23;;;14.40;;
4744;SDS011;2386;42.138;24.746;2023-10-19T04:42:59;20.23;;;14.33;;
4744;SDS011;2386;42.138;24.746;2023-10-19T04:45:29;18.60;;;14.00;;
4744;SDS011;2386;42.138;24.746;2023-10-19T04:47:54;20.57;;;14.73;;
4744;SDS011;2386;42.138;24.746;2023-10-19T04:50:20;16.40;;;13.13;;
4744;SDS011;2386;42.138;24.746;2023-10-19T04:52:46;21.30;;;14.33;;
4744;SDS011;2386;42.138;24.746;2023-10-19T04:55:12;19.80;;;13.90;;
4744;SDS011;2386;42.138;24.746;2023-10-19T04:57:38;23.93;;;14.50;;
4744;SDS011;2386;42.138;24.746;2023-10-19T05:00:03;17.87;;;13.50;;
4744;SDS011;2386;42.138;24.746;2023-10-19T05:02:29;19.93;;;12.30;;
4744;SDS011;2386;42.138;24.746;2023-10-19T05:04:55;25.60;;;13.60;;
4744;SDS011;2386;42.138;24.746;2023-10-19T05:07:20;17.70;;;13.30;;
4744;SDS011;2386;42.138;24.746;2023-10-19T05:09:46;24.30;;;12.40;;
4744;SDS011;2386;42.138;24.746;2023-10-19T05:12:12;19.80;;;13.83;;
4744;SDS011;2386;42.138;24.746;2023-10-19T05:14:39;15.70;;;12.23;;
4744;SDS011;2386;42.138;24.746;2023-10-19T05:17:06;18.93;;;12.73;;
4744;SDS011;2386;42.138;24.746;2023-10-19T05:19:34;21.13;;;12.73;;
4744;SDS011;2386;42.138;24.746;2023-10-19T05:22:00;19.23;;;13.27;;
4744;SDS011;2386;42.138;24.746;2023-10-19T05:24:27;16.90;;;11.73;;
4744;SDS011;2386;42.138;24.746;2023-10-19T05:26:53;28.50;;;12.20;;
4744;SDS011;2386;42.138;24.746;2023-10-19T05:29:19;19.30;;;14.37;;
4744;SDS011;2386;42.138;24.746;2023-10-19T05:31:45;23.97;;;14.10;;
4744;SDS011;2386;42.138;24.746;2023-10-19T05:34:10;19.60;;;12.37;;
4744;SDS011;2386;42.138;24.746;2023-10-19T05:36:35;17.00;;;12.47;;
4744;SDS011;2386;42.138;24.746;2023-10-19T05:39:01;18.60;;;12.60;;
4744;SDS011;2386;42.138;24.746;2023-10-19T05:41:29;14.70;;;12.40;;
4744;SDS011;2386;42.138;24.746;2023-10-19T05:43:56;16.40;;;12.23;;
4744;SDS011;2386;42.138;24.746;2023-10-19T05:46:22;22.00;;;12.00;;
4744;SDS011;2386;42.138;24.746;2023-10-19T05:48:50;22.17;;;12.17;;
4744;SDS011;2386;42.138;24.746;2023-10-19T05:51:15;16.07;;;12.43;;
4744;SDS011;2386;42.138;24.746;2023-10-19T05:53:42;18.97;;;11.57;;
4744;SDS011;2386;42.138;24.746;2023-10-19T05:56:09;20.87;;;13.10;;
4744;SDS011;2386;42.138;24.746;2023-10-19T05:58:35;23.33;;;11.97;;
4744;SDS011;2386;42.138;24.746;2023-10-19T06:01:01;17.73;;;12.20;;
4744;SDS011;2386;42.138;24.746;2023-10-19T06:03:27;23.50;;;13.60;;
4744;SDS011;2386;42.138;24.746;2023-10-19T06:05:53;17.13;;;12.73;;
4744;SDS011;2386;42.138;24.746;2023-10-19T06:08:21;18.00;;;12.17;;
4744;SDS011;2386;42.138;24.746;2023-10-19T06:10:51;17.63;;;11.80;;
4744;SDS011;2386;42.138;24.746;2023-10-19T06:13:17;16.60;;;11.90;;
4744;SDS011;2386;42.138;24.746;2023-10-19T06:15:44;21.37;;;12.73;;
4744;SDS011;2386;42.138;24.746;2023-10-19T06:18:09;17.10;;;11.83;;
4744;SDS011;2386;42.138;24.746;2023-10-19T06:20:35;15.57;;;12.33;;
4744;SDS011;2386;42.138;24.746;2023-10-19T06:23:09;24.93;;;15.50;;
4744;SDS011;2386;42.138;24.746;2023-10-19T06:25:35;19.67;;;13.70;;
4744;SDS011;2386;42.138;24.746;2023-10-19T06:28:01;17.13;;;11.87;;
4744;SDS011;2386;42.138;24.746;2023-10-19T06:30:26;21.77;;;12.43;;
4744;SDS011;2386;42.138;24.746;2023-10-19T06:32:56;16.30;;;11.40;;
4744;SDS011;2386;42.138;24.746;2023-10-19T06:35:26;26.40;;;12.30;;
4744;SDS011;2386;42.138;24.746;2023-10-19T06:37:52;16.23;;;11.73;;
4744;SDS011;2386;42.138;24.746;2023-10-19T06:40:20;21.60;;;12.53;;
4744;SDS011;2386;42.138;24.746;2023-10-19T06:42:47;17.67;;;12.53;;
4744;SDS011;2386;42.138;24.746;2023-10-19T06:45:16;23.93;;;11.97;;
4744;SDS011;2386;42.138;24.746;2023-10-19T06:47:44;16.30;;;12.60;;
4744;SDS011;2386;42.138;24.746;2023-10-19T06:50:12;58.47;;;37.53;;
4744;SDS011;2386;42.138;24.746;2023-10-19T06:52:40;46.33;;;29.90;;
4744;SDS011;2386;42.138;24.746;2023-10-19T06:55:07;18.73;;;13.30;;
4744;SDS011;2386;42.138;24.746;2023-10-19T06:57:42;17.40;;;13.60;;
4744;SDS011;2386;42.138;24.746;2023-10-19T07:00:09;18.43;;;12.73;;
4744;SDS011;2386;42.138;24.746;2023-10-19T07:02:39;19.03;;;12.60;;
4744;SDS011;2386;42.138;24.746;2023-10-19T07:05:09;16.07;;;13.20;;
4744;SDS011;2386;42.138;24.746;2023-10-19T07:07:36;17.10;;;11.53;;
4744;SDS011;2386;42.138;24.746;2023-10-19T07:10:08;15.60;;;11.37;;
4744;SDS011;2386;42.138;24.746;2023-10-19T07:12:37;24.30;;;12.00;;
4744;SDS011;2386;42.138;24.746;2023-10-19T07:15:06;18.13;;;11.70;;
4744;SDS011;2386;42.138;24.746;2023-10-19T07:17:38;14.70;;;11.90;;
4744;SDS011;2386;42.138;24.746;2023-10-19T07:20:05;19.70;;;12.23;;
4744;SDS011;2386;42.138;24.746;2023-10-19T07:22:34;14.33;;;10.93;;
4744;SDS011;2386;42.138;24.746;2023-10-19T07:25:04;18.50;;;12.80;;
4744;SDS011;2386;42.138;24.746;2023-10-19T07:27:31;20.17;;;12.03;;
4744;SDS011;2386;42.138;24.746;2023-10-19T07:29:56;19.33;;;12.33;;
4744;SDS011;2386;42.138;24.746;2023-10-19T07:32:22;16.13;;;12.37;;
4744;SDS011;2386;42.138;24.746;2023-10-19T07:34:47;18.80;;;13.20;;
4744;SDS011;2386;42.138;24.746;2023-10-19T07:37:13;20.67;;;12.33;;
4744;SDS011;2386;42.138;24.746;2023-10-19T07:39:45;18.47;;;12.40;;
4744;SDS011;2386;42.138;24.746;2023-10-19T07:42:11;17.33;;;12.73;;
4744;SDS011;2386;42.138;24.746;2023-10-19T07:44:37;26.13;;;13.43;;
4744;SDS011;2386;42.138;24.746;2023-10-19T07:47:02;15.03;;;11.40;;
4744;SDS011;2386;42.138;24.746;2023-10-19T07:49:28;16.43;;;12.43;;
4744;SDS011;2386;42.138;24.746;2023-10-19T07:51:54;27.10;;;12.53;;
4744;SDS011;2386;42.138;24.746;2023-10-19T07:54:20;17.43;;;12.63;;
4744;SDS011;2386;42.138;24.746;2023-10-19T07:56:45;17.00;;;12.73;;
4744;SDS011;2386;42.138;24.746;2023-10-19T07:59:11;21.57;;;12.90;;
4744;SDS011;2386;42.138;24.746;2023-10-19T08:01:37;14.50;;;11.90;;
4744;SDS011;2386;42.138;24.746;2023-10-19T08:04:03;20.50;;;12.30;;
4744;SDS011;2386;42.138;24.746;2023-10-19T08:06:30;28.47;;;13.83;;
4744;SDS011;2386;42.138;24.746;2023-10-19T08:08:56;19.33;;;13.97;;
4744;SDS011;2386;42.138;24.746;2023-10-19T08:11:23;19.10;;;13.83;;
4744;SDS011;2386;42.138;24.746;2023-10-19T08:13:48;18.17;;;13.90;;
4744;SDS011;2386;42.138;24.746;2023-10-19T08:16:14;18.93;;;14.17;;
4744;SDS011;2386;42.138;24.746;2023-10-19T08:18:41;18.30;;;13.93;;
4744;SDS011;2386;42.138;24.746;2023-10-19T08:21:07;18.13;;;14.60;;
4744;SDS011;2386;42.138;24.746;2023-10-19T08:23:32;21.00;;;13.57;;
4744;SDS011;2386;42.138;24.746;2023-10-19T08:25:58;20.33;;;13.67;;
4744;SDS011;2386;42.138;24.746;2023-10-19T08:28:24;20.60;;;13.63;;
4744;SDS011;2386;42.138;24.746;2023-10-19T08:30:50;19.60;;;15.23;;
4744;SDS011;2386;42.138;24.746;2023-10-19T08:33:27;26.63;;;19.30;;
4744;SDS011;2386;42.138;24.746;2023-10-19T08:35:55;25.13;;;17.50;;
4744;SDS011;2386;42.138;24.746;2023-10-19T08:38:22;24.97;;;17.10;;
4744;SDS011;2386;42.138;24.746;2023-10-19T08:40:48;23.47;;;16.53;;
4744;SDS011;2386;42.138;24.746;2023-10-19T08:43:15;35.33;;;17.57;;
4744;SDS011;2386;42.138;24.746;2023-10-19T08:45:43;23.80;;;16.93;;
4744;SDS011;2386;42.138;24.746;2023-10-19T08:48:09;21.17;;;16.13;;
4744;SDS011;2386;42.138;24.746;2023-10-19T08:50:36;31.43;;;16.63;;
4744;SDS011;2386;42.138;24.746;2023-10-19T08:53:03;21.70;;;16.07;;
4744;SDS011;2386;42.138;24.746;2023-10-19T08:55:33;25.20;;;17.80;;
4744;SDS011;2386;42.138;24.746;2023-10-19T08:57:59;43.43;;;19.77;;
4744;SDS011;2386;42.138;24.746;2023-10-19T09:00:25;22.70;;;16.73;;
4744;SDS011;2386;42.138;24.746;2023-10-19T09:02:52;25.03;;;16.57;;
4744;SDS011;2386;42.138;24.746;2023-10-19T09:05:18;23.10;;;16.20;;
4744;SDS011;2386;42.138;24.746;2023-10-19T09:07:48;21.87;;;16.30;;
4744;SDS011;2386;42.138;24.746;2023-10-19T09:10:24;27.20;;;17.57;;
4744;SDS011;2386;42.138;24.746;2023-10-19T09:13:24;30.17;;;18.53;;
4744;SDS011;2386;42.138;24.746;2023-10-19T09:15:47;32.20;;;17.97;;
4744;SDS011;2386;42.138;24.746;2023-10-19T09:18:21;24.67;;;17.77;;
4744;SDS011;2386;42.138;24.746;2023-10-19T09:20:49;23.93;;;16.20;;
4744;SDS011;2386;42.138;24.746;2023-10-19T09:23:22;27.30;;;18.13;;
4744;SDS011;2386;42.138;24.746;2023-10-19T09:25:51;26.50;;;16.27;;
4744;SDS011;2386;42.138;24.746;2023-10-19T09:28:21;26.13;;;18.17;;
4744;SDS011;2386;42.138;24.746;2023-10-19T09:30:50;23.83;;;16.93;;
4744;SDS011;2386;42.138;24.746;2023-10-19T09:33:16;25.20;;;17.80;;
4744;SDS011;2386;42.138;24.746;2023-10-19T09:35:44;24.10;;;16.13;;
4744;SDS011;2386;42.138;24.746;2023-10-19T09:38:13;20.47;;;15.20;;
4744;SDS011;2386;42.138;24.746;2023-10-19T09:40:39;27.00;;;14.43;;
4744;SDS011;2386;42.138;24.746;2023-10-19T09:43:06;20.03;;;14.80;;
4744;SDS011;2386;42.138;24.746;2023-10-19T09:45:40;19.50;;;14.37;;
4744;SDS011;2386;42.138;24.746;2023-10-19T09:48:07;25.70;;;13.13;;
4744;SDS011;2386;42.138;24.746;2023-10-19T09:50:33;20.63;;;12.17;;
4744;SDS011;2386;42.138;24.746;2023-10-19T09:52:59;15.37;;;11.80;;
4744;SDS011;2386;42.138;24.746;2023-10-19T09:55:29;19.30;;;12.30;;
4744;SDS011;2386;42.138;24.746;2023-10-19T09:58:02;19.10;;;11.23;;
4744;SDS011;2386;42.138;24.746;2023-10-19T10:00:32;18.03;;;12.57;;
4744;SDS011;2386;42.138;24.746;2023-10-19T10:02:59;17.97;;;12.80;;
4744;SDS011;2386;42.138;24.746;2023-10-19T10:13:59;19.27;;;12.27;;
4744;SDS011;2386;42.138;24.746;2023-10-19T10:16:28;14.33;;;12.00;;
4744;SDS011;2386;42.138;24.746;2023-10-19T10:18:59;17.80;;;12.57;;
4744;SDS011;2386;42.138;24.746;2023-10-19T10:21:25;13.40;;;11.07;;
4744;SDS011;2386;42.138;24.746;2023-10-19T10:23:52;42.03;;;28.37;;
4744;SDS011;2386;42.138;24.746;2023-10-19T10:26:29;33.43;;;22.67;;
4744;SDS011;2386;42.138;24.746;2023-10-19T10:29:14;23.07;;;13.93;;
4744;SDS011;2386;42.138;24.746;2023-10-19T10:31:48;14.57;;;12.00;;
4744;SDS011;2386;42.138;24.746;2023-10-19T10:37:06;16.50;;;11.10;;
4744;SDS011;2386;42.138;24.746;2023-10-19T10:39:36;21.50;;;13.70;;
4744;SDS011;2386;42.138;24.746;2023-10-19T10:42:03;15.07;;;12.87;;
4744;SDS011;2386;42.138;24.746;2023-10-19T10:47:09;12.07;;;10.20;;
4744;SDS011;2386;42.138;24.746;2023-10-19T10:54:51;15.70;;;11.43;;
4744;SDS011;2386;42.138;24.746;2023-10-19T10:57:18;16.60;;;12.80;;
4744;SDS011;2386;42.138;24.746;2023-10-19T10:59:44;14.50;;;11.53;;
4744;SDS011;2386;42.138;24.746;2023-10-19T11:02:18;20.60;;;12.20;;
4744;SDS011;2386;42.138;24.746;2023-10-19T11:04:46;13.20;;;11.30;;
4744;SDS011;2386;42.138;24.746;2023-10-19T11:07:18;20.77;;;12.10;;
4744;SDS011;2386;42.138;24.746;2023-10-19T11:09:45;17.33;;;12.60;;
4744;SDS011;2386;42.138;24.746;2023-10-19T11:12:12;14.03;;;11.07;;
4744;SDS011;2386;42.138;24.746;2023-10-19T11:14:50;15.93;;;11.63;;
4744;SDS011;2386;42.138;24.746;2023-10-19T11:17:19;14.90;;;10.60;;
4744;SDS011;2386;42.138;24.746;2023-10-19T11:19:48;15.67;;;11.80;;
4744;SDS011;2386;42.138;24.746;2023-10-19T11:22:14;15.67;;;10.97;;
4744;SDS011;2386;42.138;24.746;2023-10-19T11:24:40;16.47;;;12.77;;
4744;SDS011;2386;42.138;24.746;2023-10-19T11:27:06;27.77;;;12.73;;
4744;SDS011;2386;42.138;24.746;2023-10-19T11:29:33;15.17;;;11.20;;
4744;SDS011;2386;42.138;24.746;2023-10-19T11:32:02;18.43;;;14.00;;
4744;SDS011;2386;42.138;24.746;2023-10-19T11:34:30;19.83;;;13.50;;
4744;SDS011;2386;42.138;24.746;2023-10-19T11:36:59;16.37;;;13.03;;
4744;SDS011;2386;42.138;24.746;2023-10-19T11:39:28;20.00;;;12.20;;
4744;SDS011;2386;42.138;24.746;2023-10-19T11:41:53;20.43;;;12.67;;
4744;SDS011;2386;42.138;24.746;2023-10-19T11:44:19;18.80;;;13.40;;
4744;SDS011;2386;42.138;24.746;2023-10-19T11:46:44;21.13;;;13.90;;
4744;SDS011;2386;42.138;24.746;2023-10-19T11:49:10;19.60;;;14.40;;
4744;SDS011;2386;42.138;24.746;2023-10-19T11:51:36;17.00;;;11.43;;
4744;SDS011;2386;42.138;24.746;2023-10-19T11:54:04;16.00;;;11.13;;
4744;SDS011;2386;42.138;24.746;2023-10-19T11:56:32;14.80;;;9.77;;
4744;SDS011;2386;42.138;24.746;2023-10-19T11:58:57;24.63;;;14.00;;
4744;SDS011;2386;42.138;24.746;2023-10-19T12:01:23;13.80;;;11.07;;
4744;SDS011;2386;42.138;24.746;2023-10-19T12:03:50;17.40;;;10.40;;
4744;SDS011;2386;42.138;24.746;2023-10-19T12:06:16;17.93;;;11.13;;
4744;SDS011;2386;42.138;24.746;2023-10-19T12:08:44;14.90;;;11.27;;
4744;SDS011;2386;42.138;24.746;2023-10-19T12:11:10;25.77;;;19.10;;
4744;SDS011;2386;42.138;24.746;2023-10-19T12:13:43;23.40;;;14.87;;
4744;SDS011;2386;42.138;24.746;2023-10-19T12:16:10;15.67;;;12.63;;
4744;SDS011;2386;42.138;24.746;2023-10-19T12:18:38;13.13;;;10.50;;
4744;SDS011;2386;42.138;24.746;2023-10-19T12:21:04;11.10;;;9.97;;
4744;SDS011;2386;42.138;24.746;2023-10-19T12:23:33;12.97;;;9.90;;
4744;SDS011;2386;42.138;24.746;2023-10-19T12:25:58;16.10;;;10.10;;
4744;SDS011;2386;42.138;24.746;2023-10-19T12:28:28;14.30;;;10.73;;
4744;SDS011;2386;42.138;24.746;2023-10-19T12:30:53;11.67;;;10.00;;
4744;SDS011;2386;42.138;24.746;2023-10-19T12:33:18;12.87;;;10.40;;
4744;SDS011;2386;42.138;24.746;2023-10-19T12:35:44;15.70;;;10.77;;
4744;SDS011;2386;42.138;24.746;2023-10-19T12:38:24;14.77;;;11.07;;
4744;SDS011;2386;42.138;24.746;2023-10-19T12:40:50;15.37;;;9.80;;
4744;SDS011;2386;42.138;24.746;2023-10-19T12:43:16;12.43;;;9.57;;
4744;SDS011;2386;42.138;24.746;2023-10-19T12:45:50;10.70;;;9.33;;
4744;SDS011;2386;42.138;24.746;2023-10-19T12:48:16;13.40;;;9.47;;
4744;SDS011;2386;42.138;24.746;2023-10-19T12:50:42;12.87;;;10.10;;
4744;SDS011;2386;42.138;24.746;2023-10-19T12:53:08;12.40;;;9.57;;
4744;SDS011;2386;42.138;24.746;2023-10-19T12:55:34;11.77;;;9.20;;
4744;SDS011;2386;42.138;24.746;2023-10-19T12:57:59;14.70;;;10.20;;
4744;SDS011;2386;42.138;24.746;2023-10-19T13:00:35;20.43;;;13.93;;
4744;SDS011;2386;42.138;24.746;2023-10-19T13:03:03;13.00;;;10.40;;
4744;SDS011;2386;42.138;24.746;2023-10-19T13:05:33;27.53;;;21.73;;
4744;SDS011;2386;42.138;24.746;2023-10-19T13:07:59;19.90;;;12.70;;
4744;SDS011;2386;42.138;24.746;2023-10-19T13:10:29;16.13;;;10.47;;
4744;SDS011;2386;42.138;24.746;2023-10-19T13:13:06;8.33;;;7.53;;
4744;SDS011;2386;42.138;24.746;2023-10-19T13:15:36;15.30;;;8.37;;
4744;SDS011;2386;42.138;24.746;2023-10-19T13:18:03;15.33;;;11.50;;
4744;SDS011;2386;42.138;24.746;2023-10-19T13:20:31;28.00;;;20.10;;
4744;SDS011;2386;42.138;24.746;2023-10-19T13:23:06;25.73;;;17.47;;
4744;SDS011;2386;42.138;24.746;2023-10-19T13:25:36;23.90;;;14.30;;
4744;SDS011;2386;42.138;24.746;2023-10-19T13:28:27;19.53;;;10.10;;
4744;SDS011;2386;42.138;24.746;2023-10-19T13:30:52;12.63;;;9.00;;
4744;SDS011;2386;42.138;24.746;2023-10-19T13:33:19;12.40;;;9.20;;
4744;SDS011;2386;42.138;24.746;2023-10-19T13:35:49;16.67;;;9.10;;
4744;SDS011;2386;42.138;24.746;2023-10-19T13:38:15;15.57;;;8.60;;
4744;SDS011;2386;42.138;24.746;2023-10-19T13:40:42;11.77;;;9.20;;
4744;SDS011;2386;42.138;24.746;2023-10-19T13:43:09;11.70;;;9.13;;
4744;SDS011;2386;42.138;24.746;2023-10-19T13:45:39;13.23;;;9.60;;
4744;SDS011;2386;42.138;24.746;2023-10-19T13:48:07;13.73;;;9.37;;
4744;SDS011;2386;42.138;24.746;2023-10-19T13:50:33;17.30;;;11.40;;
4744;SDS011;2386;42.138;24.746;2023-10-19T13:52:59;13.17;;;11.17;;
4744;SDS011;2386;42.138;24.746;2023-10-19T13:55:27;16.37;;;13.23;;
4744;SDS011;2386;42.138;24.746;2023-10-19T13:57:53;22.60;;;12.33;;
4744;SDS011;2386;42.138;24.746;2023-10-19T14:00:20;20.13;;;12.90;;
4744;SDS011;2386;42.138;24.746;2023-10-19T14:02:55;13.83;;;10.80;;
4744;SDS011;2386;42.138;24.746;2023-10-19T14:05:22;16.93;;;11.73;;
4744;SDS011;2386;42.138;24.746;2023-10-19T14:07:49;22.97;;;12.93;;
4744;SDS011;2386;42.138;24.746;2023-10-19T14:10:16;15.83;;;10.17;;
4744;SDS011;2386;42.138;24.746;2023-10-19T14:12:44;15.20;;;10.17;;
4744;SDS011;2386;42.138;24.746;2023-10-19T14:15:19;13.50;;;9.80;;
4744;SDS011;2386;42.138;24.746;2023-10-19T14:17:45;13.20;;;9.50;;
4744;SDS011;2386;42.138;24.746;2023-10-19T14:20:14;13.53;;;9.83;;
4744;SDS011;2386;42.138;24.746;2023-10-19T14:22:41;13.47;;;9.50;;
4744;SDS011;2386;42.138;24.746;2023-10-19T14:25:08;13.00;;;9.77;;
4744;SDS011;2386;42.138;24.746;2023-10-19T14:27:37;12.77;;;9.60;;
4744;SDS011;2386;42.138;24.746;2023-10-19T14:30:08;13.07;;;10.10;;
4744;SDS011;2386;42.138;24.746;2023-10-19T14:32:46;13.70;;;10.60;;
4744;SDS011;2386;42.138;24.746;2023-10-19T14:35:14;14.50;;;11.47;;
4744;SDS011;2386;42.138;24.746;2023-10-19T14:37:41;19.97;;;11.33;;
4744;SDS011;2386;42.138;24.746;2023-10-19T14:40:08;15.50;;;11.43;;
4744;SDS011;2386;42.138;24.746;2023-10-19T14:42:38;14.80;;;11.20;;
4744;SDS011;2386;42.138;24.746;2023-10-19T14:45:14;15.17;;;11.07;;
4744;SDS011;2386;42.138;24.746;2023-10-19T14:47:42;14.30;;;10.63;;
4744;SDS011;2386;42.138;24.746;2023-10-19T14:50:13;14.23;;;10.20;;
4744;SDS011;2386;42.138;24.746;2023-10-19T14:52:42;16.27;;;10.30;;
4744;SDS011;2386;42.138;24.746;2023-10-19T14:55:09;14.93;;;9.90;;
4744;SDS011;2386;42.138;24.746;2023-10-19T14:57:36;14.30;;;9.60;;
4744;SDS011;2386;42.138;24.746;2023-10-19T15:00:03;13.03;;;10.50;;
4744;SDS011;2386;42.138;24.746;2023-10-19T15:02:49;12.43;;;10.10;;
4744;SDS011;2386;42.138;24.746;2023-10-19T15:05:16;11.43;;;9.50;;
4744;SDS011;2386;42.138;24.746;2023-10-19T15:07:43;13.07;;;9.83;;